createdAt,value
2022-08-17T00:00:34.312Z,77.72
2022-08-17T00:05:41.143Z,77.83
2022-08-17T00:10:47.617Z,78.06
2022-08-17T00:15:49.580Z,78.34
2022-08-17T00:20:51.667Z,78.66
2022-08-17T00:25:53.855Z,78.78
2022-08-17T00:35:59.158Z,79.81
2022-08-17T00:41:08.269Z,79.91
2022-08-17T00:46:24.101Z,80.24
2022-08-17T00:51:50.665Z,80.41
2022-08-17T00:56:57.767Z,80.18
2022-08-17T01:02:00.665Z,79.85
2022-08-17T01:07:04.525Z,79.86
2022-08-17T01:12:09.246Z,79.98
2022-08-17T01:17:11.407Z,80.21
2022-08-17T01:22:12.950Z,80.42
2022-08-17T01:27:16.492Z,80.51
2022-08-17T01:32:20.540Z,80.52
2022-08-17T01:37:30.689Z,80.90
2022-08-17T01:42:41.995Z,81.17
2022-08-17T01:47:43.865Z,81.19
2022-08-17T01:52:52.247Z,83.34
2022-08-17T01:57:53.987Z,85.22
2022-08-17T02:02:55.741Z,84.87
2022-08-17T02:08:00.522Z,84.39
2022-08-17T02:13:04.333Z,84.25
2022-08-17T02:18:07.714Z,83.91
2022-08-17T02:23:12.106Z,83.95
2022-08-17T02:28:13.728Z,85.45
2022-08-17T02:33:15.523Z,86.67
2022-08-17T02:38:17.528Z,92.39
2022-08-17T02:43:19.251Z,92.45
2022-08-17T02:48:30.450Z,92.60
2022-08-17T02:53:35.659Z,92.51
2022-08-17T02:58:38.126Z,92.66
2022-08-17T03:03:40.379Z,90.19
2022-08-17T03:08:42.006Z,91.52
2022-08-17T03:13:43.639Z,92.88
2022-08-17T03:18:45.317Z,92.45
2022-08-17T03:23:47.073Z,89.32
2022-08-17T03:28:56.165Z,88.32
2022-08-17T03:33:58.024Z,87.67
2022-08-17T03:39:00.603Z,88.60
2022-08-17T03:44:02.536Z,90.93
2022-08-17T03:49:24.765Z,92.21
2022-08-17T03:54:44.997Z,90.20
2022-08-17T03:59:47.613Z,88.97
2022-08-17T04:04:52.895Z,88.67
2022-08-17T04:09:54.506Z,84.39
2022-08-17T04:14:56.758Z,86.84
2022-08-17T04:19:58.448Z,87.42
2022-08-17T04:25:01.761Z,90.00
2022-08-17T04:30:07.061Z,90.31
2022-08-17T04:35:09.286Z,83.64
2022-08-17T04:40:30.426Z,82.32
2022-08-17T04:45:32.596Z,83.52
2022-08-17T04:50:36.929Z,87.89
2022-08-17T04:55:42.403Z,88.29
2022-08-17T05:01:10.948Z,90.44
2022-08-17T05:06:12.642Z,89.44
2022-08-17T05:11:14.885Z,87.49
2022-08-17T05:16:18.088Z,87.63
2022-08-17T05:21:23.150Z,86.95
2022-08-17T05:26:31.914Z,87.60
2022-08-17T05:31:38.479Z,88.54
2022-08-17T05:36:42.950Z,88.31
2022-08-17T05:41:47.882Z,85.94
2022-08-17T05:47:02.939Z,84.74
2022-08-17T05:52:33.699Z,83.13
2022-08-17T05:57:39.484Z,88.67
2022-08-17T06:02:54.781Z,89.47
2022-08-17T06:08:12.215Z,92.77
2022-08-17T06:13:42.548Z,95.26
2022-08-17T06:18:59.568Z,95.57
2022-08-17T06:24:21.747Z,97.04
2022-08-17T06:29:49.028Z,95.91
2022-08-17T06:34:52.202Z,96.57
2022-08-17T06:40:22.162Z,96.40
2022-08-17T06:45:31.137Z,95.36
2022-08-17T06:50:53.569Z,96.14
2022-08-17T06:56:09.959Z,96.56
2022-08-17T07:01:20.792Z,97.92
2022-08-17T07:06:27.816Z,97.48
2022-08-17T07:11:49.032Z,96.37
2022-08-17T07:16:54.992Z,97.18
2022-08-17T07:22:50.591Z,98.10
2022-08-17T07:28:06.870Z,96.54
2022-08-17T07:33:13.604Z,96.83
2022-08-17T07:38:28.096Z,95.50
2022-08-17T07:43:52.442Z,95.23
2022-08-17T07:48:57.101Z,93.39
2022-08-17T07:54:13.990Z,93.39
2022-08-17T07:59:23.675Z,94.77
2022-08-17T08:10:27.939Z,96.60
2022-08-17T08:15:37.361Z,97.18
2022-08-17T08:20:57.796Z,97.07
2022-08-17T08:26:18.382Z,96.59
2022-08-17T08:31:42.511Z,98.79
2022-08-17T08:37:12.856Z,97.76
2022-08-17T08:42:48.986Z,98.18
2022-08-17T08:47:53.919Z,99.53
2022-08-17T08:53:11.619Z,99.47
2022-08-17T08:58:31.789Z,99.86
2022-08-17T09:03:53.203Z,100.00
2022-08-17T09:09:04.652Z,99.42
2022-08-17T09:14:21.811Z,98.17
2022-08-17T09:19:44.856Z,97.41
2022-08-17T09:24:57.192Z,94.06
2022-08-17T09:30:02.576Z,92.61
2022-08-17T09:35:15.397Z,91.85
2022-08-17T09:40:32.644Z,91.42
2022-08-17T09:45:50.759Z,91.42
2022-08-17T09:51:07.020Z,91.52
2022-08-17T09:56:24.196Z,94.02
2022-08-17T10:01:52.577Z,92.58
2022-08-17T10:07:43.032Z,92.83
2022-08-17T10:12:59.470Z,94.09
2022-08-17T10:18:23.867Z,94.79
2022-08-17T10:23:52.508Z,95.34
2022-08-17T10:29:00.536Z,95.08
2022-08-17T10:34:41.388Z,95.08
2022-08-17T10:40:09.937Z,96.88
2022-08-17T10:45:20.113Z,97.35
2022-08-17T10:50:49.604Z,97.84
2022-08-17T10:56:19.480Z,97.93
2022-08-17T11:01:37.921Z,97.91
2022-08-17T11:06:41.961Z,98.56
2022-08-17T11:11:56.487Z,97.80
2022-08-17T11:17:49.743Z,96.90
2022-08-17T11:23:10.140Z,97.12
2022-08-17T11:28:23.616Z,95.31
2022-08-17T11:33:34.236Z,95.21
2022-08-17T11:38:57.922Z,95.82
2022-08-17T11:44:21.946Z,93.84
2022-08-17T11:50:08.059Z,94.41
2022-08-17T11:55:36.309Z,94.98
2022-08-17T12:00:40.061Z,95.16
2022-08-17T12:05:43.392Z,94.60
2022-08-17T12:11:03.474Z,94.06
2022-08-17T12:16:05.455Z,94.36
2022-08-17T12:21:13.649Z,95.78
2022-08-17T12:26:19.906Z,96.46
2022-08-17T12:31:45.945Z,97.35
2022-08-17T12:36:51.197Z,96.56
2022-08-17T12:42:01.533Z,96.67
2022-08-17T12:47:19.352Z,97.43
2022-08-17T12:52:25.319Z,97.60
2022-08-17T12:57:33.226Z,98.71
2022-08-17T13:02:42.904Z,99.97
2022-08-17T13:07:46.642Z,98.82
2022-08-17T13:12:51.043Z,97.53
2022-08-17T13:17:59.340Z,98.77
2022-08-17T13:23:11.579Z,99.06
2022-08-17T13:28:35.800Z,99.79
2022-08-17T13:33:44.793Z,99.94
2022-08-17T13:38:49.780Z,99.95
2022-08-17T13:43:51.347Z,99.29
2022-08-17T13:49:09.986Z,100.00
2022-08-17T13:54:37.753Z,100.00
2022-08-17T13:59:54.707Z,100.00
2022-08-17T14:04:58.408Z,100.00
2022-08-17T14:10:12.584Z,100.00
2022-08-17T14:15:16.316Z,100.00
2022-08-17T14:20:21.231Z,99.51
2022-08-17T14:25:27.044Z,98.89
2022-08-17T14:48:07.594Z,98.52
2022-08-17T14:53:13.707Z,99.87
2022-08-17T14:58:42.563Z,100.00
2022-08-17T15:03:44.314Z,99.32
2022-08-17T15:08:46.182Z,100.00
2022-08-17T15:13:52.462Z,100.00
2022-08-17T15:18:55.032Z,100.00
2022-08-17T15:23:57.308Z,100.00
2022-08-17T15:28:58.887Z,100.00
2022-08-17T15:40:47.700Z,98.94
2022-08-17T15:46:17.524Z,99.72
2022-08-17T15:51:28.577Z,100.00
2022-08-17T15:56:31.679Z,100.00
2022-08-17T16:03:01.055Z,100.00
2022-08-17T16:06:55.741Z,100.00
2022-08-17T16:11:57.564Z,100.00
2022-08-17T16:16:59.417Z,100.00
2022-08-17T16:22:01.822Z,100.00
2022-08-17T16:27:04.182Z,100.00
2022-08-17T16:32:21.824Z,100.00
2022-08-17T16:43:00.228Z,100.00
2022-08-17T16:48:02.493Z,100.00
2022-08-17T16:53:17.136Z,98.51
2022-08-17T16:58:19.149Z,97.87
2022-08-17T17:03:24.931Z,97.89
2022-08-17T17:08:31.419Z,96.80
2022-08-17T17:13:43.850Z,95.82
2022-08-17T17:19:10.585Z,97.78
2022-08-17T17:24:36.875Z,97.26
2022-08-17T17:29:50.390Z,94.95
2022-08-17T17:35:00.977Z,95.32
2022-08-17T17:40:13.531Z,96.24
2022-08-17T17:45:31.984Z,95.82
2022-08-17T17:50:37.939Z,95.23
2022-08-17T17:56:01.667Z,95.00
2022-08-17T18:01:23.967Z,95.37
2022-08-17T18:06:36.278Z,93.76
2022-08-17T18:11:59.107Z,93.45
2022-08-17T18:17:02.207Z,92.63
2022-08-17T18:22:24.435Z,92.13
2022-08-17T18:27:40.227Z,92.42
2022-08-17T18:32:46.510Z,93.17
2022-08-17T18:37:54.184Z,92.47
2022-08-17T18:43:03.995Z,93.03
2022-08-17T18:48:17.907Z,93.07
2022-08-17T18:53:38.714Z,92.97
2022-08-17T18:58:40.549Z,93.10
2022-08-17T19:03:43.380Z,92.42
2022-08-17T19:08:45.044Z,92.88
2022-08-17T19:13:54.688Z,91.71
2022-08-17T19:19:02.917Z,92.29
2022-08-17T19:24:21.948Z,91.44
2022-08-17T19:29:53.793Z,91.48
2022-08-17T19:34:56.853Z,91.11
2022-08-17T19:40:51.759Z,91.00
2022-08-17T19:46:07.942Z,89.20
2022-08-17T19:51:18.213Z,89.86
2022-08-17T19:56:35.133Z,89.18
2022-08-17T20:01:49.236Z,88.75
2022-08-17T20:06:51.989Z,88.01
2022-08-17T20:12:05.386Z,87.05
2022-08-17T20:17:07.236Z,87.36
2022-08-17T20:22:21.190Z,86.45
2022-08-17T20:27:34.465Z,87.38
2022-08-17T20:32:48.311Z,88.40
2022-08-17T20:37:58.761Z,88.97
2022-08-17T20:43:35.578Z,89.43
2022-08-17T20:48:42.710Z,90.44
2022-08-17T20:53:47.184Z,90.88
2022-08-17T20:58:48.900Z,91.04
2022-08-17T21:03:51.835Z,91.43
2022-08-17T21:09:18.035Z,91.99
2022-08-17T21:14:32.701Z,93.10
2022-08-17T21:20:00.531Z,93.32
2022-08-17T21:25:12.113Z,93.33
2022-08-17T21:30:23.414Z,93.81
2022-08-17T21:35:30.064Z,93.95
2022-08-17T21:40:33.807Z,94.30
2022-08-17T21:45:40.311Z,94.77
2022-08-17T21:50:46.158Z,94.91
2022-08-17T21:55:49.087Z,95.07
2022-08-17T22:01:20.611Z,95.34
2022-08-17T22:06:43.193Z,95.32
2022-08-17T22:12:21.981Z,95.39
2022-08-17T22:17:28.191Z,95.44
2022-08-17T22:22:35.014Z,95.08
2022-08-17T22:28:01.272Z,95.22
2022-08-17T22:33:31.506Z,95.69
2022-08-17T22:38:33.203Z,95.41
2022-08-17T22:43:38.515Z,95.65
2022-08-17T22:48:49.251Z,95.66
2022-08-17T22:54:21.951Z,95.27
2022-08-17T22:59:54.429Z,94.38
2022-08-17T23:05:10.736Z,93.61
2022-08-17T23:10:13.751Z,93.71
2022-08-17T23:15:19.174Z,93.73
2022-08-17T23:20:20.894Z,93.27
2022-08-17T23:25:28.220Z,93.08
2022-08-17T23:30:33.665Z,93.04
2022-08-17T23:35:39.011Z,93.26
2022-08-17T23:40:42.534Z,93.22
2022-08-17T23:45:44.123Z,93.30
2022-08-17T23:50:45.772Z,93.25
2022-08-17T23:55:47.647Z,93.31
